Time;durP1;ratioP1;P1;durP2;ratioP2;P2;SDS_P1;SDS_P2;PMS_P1;PMS_P2;Temp;Humidity;BMP_temperature;BMP_pressure;BME280_temperature;BME280_humidity;BME280_pressure;Samples;Min_cycle;Max_cycle;Signal;HPM_P1;HPM_P2
2022/08/15 00:01:24;;;;;;;11.23;10.13;;;25.30;99.90;;;;;;5037324;28;20180;-70
2022/08/15 00:03:53;;;;;;;14.88;11.52;;;25.40;99.90;;;;;;5035043;28;20250;-71
2022/08/15 00:06:23;;;;;;;14.10;10.95;;;25.30;99.90;;;;;;5008771;28;20718;-71
2022/08/15 00:08:52;;;;;;;15.27;11.18;;;25.20;99.90;;;;;;5039777;28;20590;-71
2022/08/15 00:11:32;;;;;;;12.13;10.73;;;25.10;99.90;;;;;;5018001;28;20307;-72
2022/08/15 00:14:02;;;;;;;12.07;10.93;;;25.10;99.90;;;;;;5037083;28;20234;-71
2022/08/15 00:16:35;;;;;;;12.88;11.15;;;25.00;99.90;;;;;;5040138;28;20195;-71
2022/08/15 00:19:08;;;;;;;14.07;10.88;;;25.00;99.90;;;;;;5033596;28;20224;-71
2022/08/15 00:21:37;;;;;;;12.45;10.65;;;25.00;99.90;;;;;;5032685;28;20320;-71
2022/08/15 00:24:03;;;;;;;12.52;11.05;;;24.90;99.90;;;;;;5039020;28;21099;-71
2022/08/15 00:26:29;;;;;;;14.98;10.75;;;24.90;99.90;;;;;;5038273;28;20212;-71
2022/08/15 00:28:55;;;;;;;13.15;10.90;;;24.90;99.90;;;;;;5034789;28;20274;-71
2022/08/15 00:31:21;;;;;;;13.80;11.05;;;24.80;99.90;;;;;;5033574;28;20259;-73
2022/08/15 00:33:47;;;;;;;13.25;11.15;;;24.80;99.90;;;;;;5030869;28;20203;-70
2022/08/15 00:36:14;;;;;;;20.08;11.88;;;24.80;99.90;;;;;;5017949;28;20681;-71
2022/08/15 00:38:39;;;;;;;16.92;11.40;;;24.70;99.90;;;;;;5032168;28;20217;-71
2022/08/15 00:43:57;;;;;;;12.00;10.63;;;24.60;99.90;;;;;;5034678;28;20238;-71
2022/08/15 00:46:25;;;;;;;13.02;11.68;;;24.60;99.90;;;;;;5034853;28;20211;-71
2022/08/15 00:48:51;;;;;;;14.02;10.77;;;24.60;99.90;;;;;;5036142;28;20208;-71
2022/08/15 00:51:32;;;;;;;12.80;11.45;;;24.50;99.90;;;;;;5037342;28;20208;-71
2022/08/15 00:54:04;;;;;;;12.90;11.05;;;24.50;99.90;;;;;;5021511;28;20207;-71
2022/08/15 00:56:35;;;;;;;13.35;11.95;;;24.50;99.90;;;;;;5033924;28;20254;-71
2022/08/15 00:59:03;;;;;;;13.32;11.00;;;24.40;99.90;;;;;;5039053;28;20243;-71
2022/08/15 01:01:28;;;;;;;12.32;10.85;;;24.40;99.90;;;;;;5036361;28;20310;-71
2022/08/15 01:03:54;;;;;;;13.02;11.00;;;24.40;99.90;;;;;;5032600;28;20633;-71
2022/08/15 01:06:22;;;;;;;17.20;11.23;;;24.30;99.90;;;;;;5029098;28;20748;-72
2022/08/15 01:08:48;;;;;;;12.98;11.43;;;24.30;99.90;;;;;;5020851;28;20211;-70
2022/08/15 01:11:27;;;;;;;14.57;11.85;;;24.30;99.90;;;;;;5034372;28;20291;-72
2022/08/15 01:13:56;;;;;;;13.52;11.25;;;24.30;99.90;;;;;;5032000;28;20238;-71
2022/08/15 01:16:24;;;;;;;13.15;11.80;;;24.20;99.90;;;;;;5038009;28;20181;-71
2022/08/15 01:18:51;;;;;;;13.13;11.77;;;24.30;99.90;;;;;;5033369;28;20207;-71
2022/08/15 01:22:00;;;;;;;12.77;11.18;;;24.30;99.90;;;;;;5033128;28;20212;-72
2022/08/15 01:24:47;;;;;;;13.77;11.30;;;24.20;99.90;;;;;;4969013;28;20303;-70
2022/08/15 01:27:14;;;;;;;12.38;11.07;;;24.20;99.90;;;;;;5031160;28;20554;-70
2022/08/15 01:29:39;;;;;;;12.50;11.30;;;24.10;99.90;;;;;;5033358;28;20212;-72
2022/08/15 01:32:05;;;;;;;12.95;11.57;;;24.10;99.90;;;;;;5020489;28;20224;-70
2022/08/15 01:34:31;;;;;;;12.73;11.43;;;24.10;99.90;;;;;;5037775;28;20180;-71
2022/08/15 01:36:57;;;;;;;13.68;11.48;;;24.10;99.90;;;;;;5034262;28;20180;-71
2022/08/15 01:39:38;;;;;;;16.05;12.40;;;23.90;99.90;;;;;;5028657;28;20780;-70
2022/08/15 01:42:22;;;;;;;13.27;11.07;;;24.00;99.90;;;;;;5038032;28;20608;-71
2022/08/15 01:44:52;;;;;;;13.77;12.35;;;23.90;99.90;;;;;;5031937;28;20322;-70
2022/08/15 01:47:31;;;;;;;15.93;12.80;;;23.90;99.90;;;;;;5031117;28;20874;-71
2022/08/15 01:50:09;;;;;;;13.85;12.48;;;23.80;99.90;;;;;;5034762;28;20227;-72
2022/08/15 01:52:57;;;;;;;15.07;12.10;;;23.90;99.90;;;;;;5018983;28;20176;-71
2022/08/15 01:55:51;;;;;;;14.07;12.50;;;23.70;99.90;;;;;;5014990;28;20478;-71
2022/08/15 01:58:17;;;;;;;14.02;12.48;;;23.70;99.90;;;;;;5049583;23;20223;-67
2022/08/15 02:00:56;;;;;;;15.25;12.65;;;23.60;99.90;;;;;;5035400;28;20204;-65
2022/08/15 02:03:33;;;;;;;13.98;12.48;;;23.50;99.90;;;;;;5038703;28;20305;-65
2022/08/15 02:06:02;;;;;;;15.90;12.63;;;23.60;99.90;;;;;;5037572;28;20204;-67
2022/08/15 02:08:27;;;;;;;14.38;12.80;;;23.60;99.90;;;;;;5037772;28;20208;-67
2022/08/15 02:10:53;;;;;;;15.43;12.73;;;23.50;99.90;;;;;;5041237;28;20206;-67
2022/08/15 02:13:19;;;;;;;16.83;13.60;;;23.40;99.90;;;;;;5038408;28;20258;-67
2022/08/15 02:15:45;;;;;;;14.73;13.23;;;23.50;99.90;;;;;;5041036;28;20211;-67
2022/08/15 02:18:11;;;;;;;18.13;13.18;;;23.50;99.90;;;;;;5033733;28;20207;-64
2022/08/15 02:20:37;;;;;;;13.95;12.57;;;23.40;99.90;;;;;;5038754;28;20212;-65
2022/08/15 02:23:03;;;;;;;15.57;13.52;;;23.40;99.90;;;;;;5038529;28;20305;-65
2022/08/15 02:25:29;;;;;;;15.02;12.15;;;23.30;99.90;;;;;;5037666;28;20206;-65
2022/08/15 02:27:55;;;;;;;17.50;13.15;;;23.40;99.90;;;;;;5032288;28;20172;-65
2022/08/15 02:30:22;;;;;;;14.23;12.45;;;23.30;99.90;;;;;;5028506;28;20275;-64
2022/08/15 02:32:48;;;;;;;13.50;12.10;;;23.30;99.90;;;;;;5045050;28;20254;-65
2022/08/15 02:35:16;;;;;;;15.00;12.77;;;23.20;99.90;;;;;;5044924;28;20579;-65
2022/08/15 02:37:43;;;;;;;14.10;12.63;;;23.20;99.90;;;;;;5042515;28;20879;-65
2022/08/15 02:40:12;;;;;;;14.00;12.52;;;23.20;99.90;;;;;;5042028;28;20291;-65
2022/08/15 02:42:38;;;;;;;12.80;11.52;;;23.20;99.90;;;;;;5045812;28;20263;-65
2022/08/15 02:45:09;;;;;;;15.18;12.82;;;23.20;99.90;;;;;;5044046;28;20299;-65
2022/08/15 02:47:35;;;;;;;14.02;12.60;;;23.20;99.90;;;;;;5040480;28;20220;-65
2022/08/15 02:50:02;;;;;;;14.20;12.82;;;23.10;99.90;;;;;;5044445;28;20208;-65
2022/08/15 02:52:28;;;;;;;14.18;12.68;;;23.10;99.90;;;;;;5043883;28;20165;-65
2022/08/15 02:54:54;;;;;;;13.77;12.27;;;23.10;99.90;;;;;;5043956;28;20180;-65
2022/08/15 02:57:19;;;;;;;13.80;12.40;;;23.10;99.90;;;;;;5037992;28;20344;-65
2022/08/15 02:59:46;;;;;;;15.25;12.18;;;23.10;99.90;;;;;;5037107;28;20207;-65
2022/08/15 03:02:12;;;;;;;14.77;13.27;;;23.00;99.90;;;;;;5038688;28;20203;-65
2022/08/15 03:04:38;;;;;;;15.27;12.60;;;22.90;99.90;;;;;;5037749;28;20188;-65
2022/08/15 03:07:04;;;;;;;14.95;13.32;;;22.80;99.90;;;;;;5042820;28;20270;-65
2022/08/15 03:09:29;;;;;;;14.43;12.90;;;22.90;99.90;;;;;;5043468;28;20633;-65
2022/08/15 03:11:55;;;;;;;18.23;13.55;;;22.90;99.90;;;;;;5022372;28;20201;-65
2022/08/15 03:14:22;;;;;;;14.88;13.30;;;22.80;99.90;;;;;;5044617;28;20204;-65
2022/08/15 03:16:49;;;;;;;17.00;13.55;;;22.90;99.90;;;;;;5046847;28;20715;-65
2022/08/15 03:19:18;;;;;;;14.93;13.25;;;22.90;99.90;;;;;;5042847;28;20202;-65
2022/08/15 03:21:49;;;;;;;15.02;13.43;;;22.80;99.90;;;;;;5041348;28;20761;-65
2022/08/15 03:24:15;;;;;;;16.35;14.15;;;22.90;99.90;;;;;;5045678;28;20212;-65
2022/08/15 03:26:46;;;;;;;16.23;14.52;;;22.90;99.90;;;;;;5048233;28;20223;-65
2022/08/15 03:29:19;;;;;;;15.90;14.30;;;22.80;99.90;;;;;;5039591;28;20253;-65
2022/08/15 03:31:48;;;;;;;14.98;13.38;;;22.70;99.90;;;;;;5042436;28;20601;-65
2022/08/15 03:34:16;;;;;;;15.95;14.35;;;22.80;99.90;;;;;;5043768;28;20573;-65
2022/08/15 03:36:45;;;;;;;15.65;14.00;;;22.80;99.90;;;;;;5046662;28;20196;-66
2022/08/15 03:39:11;;;;;;;17.95;15.27;;;22.70;99.90;;;;;;5040076;28;20637;-66
2022/08/15 03:41:36;;;;;;;16.17;14.20;;;22.80;99.90;;;;;;5049414;28;20239;-66
2022/08/15 03:44:03;;;;;;;16.88;14.52;;;22.80;99.90;;;;;;5048682;28;20210;-66
2022/08/15 03:46:29;;;;;;;16.88;14.65;;;22.80;99.90;;;;;;5040917;28;20199;-66
2022/08/15 03:48:56;;;;;;;18.40;14.52;;;22.80;99.90;;;;;;5044551;28;20184;-66
2022/08/15 03:51:23;;;;;;;17.25;14.88;;;22.90;99.90;;;;;;5048298;28;20199;-66
2022/08/15 03:53:52;;;;;;;16.25;14.55;;;22.90;99.90;;;;;;5047528;28;20200;-66
2022/08/15 03:56:21;;;;;;;17.77;14.05;;;22.80;99.90;;;;;;5041939;28;20205;-66
2022/08/15 03:58:47;;;;;;;16.85;14.90;;;22.80;99.90;;;;;;5035616;28;20285;-65
2022/08/15 04:01:17;;;;;;;17.25;15.05;;;22.80;99.90;;;;;;5046038;28;20216;-66
2022/08/15 04:03:45;;;;;;;16.38;14.70;;;22.90;99.90;;;;;;5041509;28;20260;-66
2022/08/15 04:06:14;;;;;;;19.58;16.42;;;22.90;99.90;;;;;;5044620;28;20322;-66
2022/08/15 04:08:40;;;;;;;17.35;15.10;;;22.90;99.90;;;;;;5045269;28;20299;-67
2022/08/15 04:11:07;;;;;;;18.23;14.93;;;22.90;99.90;;;;;;5045968;28;20350;-66
2022/08/15 04:13:34;;;;;;;16.48;14.18;;;22.80;99.90;;;;;;5042709;28;20176;-66
2022/08/15 04:16:01;;;;;;;20.08;16.45;;;22.90;99.90;;;;;;5032880;28;20180;-65
2022/08/15 04:18:27;;;;;;;18.05;16.15;;;22.90;99.90;;;;;;5045741;28;20213;-66
2022/08/15 04:20:55;;;;;;;18.33;14.52;;;22.80;99.90;;;;;;5045852;28;20214;-65
2022/08/15 04:23:21;;;;;;;16.60;14.52;;;22.80;99.90;;;;;;5040133;28;20203;-65
2022/08/15 04:25:47;;;;;;;19.40;16.92;;;23.00;99.90;;;;;;5045991;28;20578;-65
2022/08/15 04:28:15;;;;;;;18.67;16.67;;;23.00;99.90;;;;;;5037380;28;20189;-66
2022/08/15 04:30:44;;;;;;;18.40;16.48;;;23.10;99.90;;;;;;5042441;28;20262;-65
2022/08/15 04:33:21;;;;;;;17.65;14.95;;;23.10;99.90;;;;;;5050404;28;20631;-66
2022/08/15 04:35:56;;;;;;;17.42;15.30;;;23.10;99.90;;;;;;5042116;28;20207;-64
2022/08/15 04:38:22;;;;;;;20.25;16.33;;;23.10;99.90;;;;;;5041562;28;20204;-65
2022/08/15 04:40:49;;;;;;;17.05;14.57;;;23.30;99.90;;;;;;5042792;28;20292;-66
2022/08/15 04:43:16;;;;;;;17.15;15.45;;;24.40;99.90;;;;;;5041796;28;20517;-66
2022/08/15 04:45:42;;;;;;;19.02;14.45;;;25.90;99.90;;;;;;5036990;28;20282;-66
2022/08/15 04:48:10;;;;;;;16.73;14.88;;;27.00;99.90;;;;;;5042198;28;20302;-65
2022/08/15 04:50:38;;;;;;;14.85;13.27;;;27.90;99.90;;;;;;5039064;28;20209;-66
2022/08/15 04:53:05;;;;;;;16.10;13.38;;;28.40;99.90;;;;;;5043061;28;20229;-66
2022/08/15 04:55:31;;;;;;;15.07;13.32;;;29.30;99.90;;;;;;5040182;28;20180;-66
2022/08/15 04:57:58;;;;;;;15.57;13.73;;;28.50;99.90;;;;;;5038530;28;20199;-66
2022/08/15 05:00:27;;;;;;;15.57;12.57;;;29.00;99.90;;;;;;5038682;28;20350;-66
2022/08/15 05:03:05;;;;;;;15.63;13.45;;;28.70;99.90;;;;;;5042741;28;20231;-66
2022/08/15 05:05:33;;;;;;;14.55;12.80;;;29.70;99.90;;;;;;5036964;28;20236;-66
2022/08/15 05:07:59;;;;;;;13.93;12.45;;;30.00;99.90;;;;;;5043303;28;20208;-66
2022/08/15 05:10:25;;;;;;;15.73;13.07;;;29.40;99.90;;;;;;5038364;28;20201;-66
2022/08/15 05:12:51;;;;;;;15.65;12.90;;;29.30;99.90;;;;;;5042109;28;20180;-66
2022/08/15 05:15:20;;;;;;;15.32;12.32;;;29.40;99.90;;;;;;5030914;28;20580;-66
2022/08/15 05:17:47;;;;;;;14.90;11.32;;;29.80;99.90;;;;;;5039818;28;20735;-65
2022/08/15 05:20:13;;;;;;;16.80;14.90;;;30.30;99.90;;;;;;5040636;28;20226;-66
2022/08/15 05:22:55;;;;;;;16.35;14.18;;;30.40;99.90;;;;;;5038639;28;20188;-66
2022/08/15 05:25:21;;;;;;;14.88;13.40;;;30.90;99.90;;;;;;5037017;28;20202;-66
2022/08/15 05:27:48;;;;;;;12.35;11.10;;;31.20;99.90;;;;;;5040810;28;20200;-66
2022/08/15 05:30:14;;;;;;;16.50;11.70;;;31.10;99.90;;;;;;5038201;28;20212;-66
2022/08/15 05:32:40;;;;;;;12.13;10.75;;;31.10;99.90;;;;;;5036921;28;20207;-66
2022/08/15 05:35:06;;;;;;;12.90;11.57;;;30.80;99.90;;;;;;5041969;28;20699;-67
2022/08/15 05:37:32;;;;;;;15.35;11.57;;;31.40;99.90;;;;;;5037860;28;20187;-66
2022/08/15 05:39:58;;;;;;;14.60;11.93;;;31.70;99.90;;;;;;5039137;28;20192;-66
2022/08/15 05:42:53;;;;;;;12.00;10.75;;;31.20;99.90;;;;;;5040335;28;20252;-66
2022/08/15 05:45:32;;;;;;;13.32;11.65;;;30.80;99.90;;;;;;5022314;28;20219;-66
2022/08/15 05:48:00;;;;;;;11.80;10.23;;;31.00;99.90;;;;;;5037375;28;20210;-66
2022/08/15 05:50:49;;;;;;;15.32;12.77;;;31.20;99.90;;;;;;5038059;28;20203;-66
2022/08/15 05:53:30;;;;;;;14.23;11.52;;;30.80;99.90;;;;;;5036355;28;20207;-66
2022/08/15 05:56:03;;;;;;;17.70;13.15;;;30.90;99.90;;;;;;5037462;28;20288;-66
2022/08/15 05:58:40;;;;;;;12.98;11.60;;;30.50;99.90;;;;;;5034468;28;20192;-66
2022/08/15 06:01:16;;;;;;;12.10;10.90;;;30.50;99.90;;;;;;5042452;28;20175;-66
2022/08/15 06:04:06;;;;;;;13.60;11.25;;;31.00;99.90;;;;;;5040319;28;20618;-66
2022/08/15 06:06:35;;;;;;;12.77;11.32;;;31.40;99.90;;;;;;5036667;28;20215;-65
2022/08/15 06:09:24;;;;;;;14.65;12.52;;;31.70;99.90;;;;;;5041973;28;20696;-65
2022/08/15 06:11:55;;;;;;;13.27;11.77;;;31.40;99.90;;;;;;5036783;28;20804;-65
2022/08/15 06:14:29;;;;;;;14.15;12.57;;;31.90;99.90;;;;;;5033292;28;20703;-65
2022/08/15 06:17:01;;;;;;;12.70;11.38;;;32.40;99.90;;;;;;5035094;28;20207;-65
2022/08/15 06:19:36;;;;;;;13.57;12.07;;;32.40;99.90;;;;;;5037741;28;20192;-65
2022/08/15 06:22:40;;;;;;;12.10;10.95;;;32.40;99.90;;;;;;5037487;28;20171;-65
2022/08/15 06:25:23;;;;;;;13.88;12.38;;;32.50;99.90;;;;;;5040110;28;20207;-65
2022/08/15 06:27:57;;;;;;;14.20;11.82;;;32.10;99.90;;;;;;5021339;28;20655;-65
2022/08/15 06:30:31;;;;;;;13.27;12.07;;;32.80;99.90;;;;;;5040432;28;20258;-65
2022/08/15 06:33:22;;;;;;;14.63;11.85;;;33.30;99.90;;;;;;5038488;28;20227;-65
2022/08/15 06:36:11;;;;;;;13.50;12.10;;;32.90;99.90;;;;;;5037413;28;20280;-65
2022/08/15 06:39:06;;;;;;;14.00;12.50;;;33.20;99.90;;;;;;5036006;28;20689;-66
2022/08/15 06:41:50;;;;;;;14.13;11.73;;;33.20;99.90;;;;;;5032394;28;20239;-66
2022/08/15 06:44:18;;;;;;;14.05;12.75;;;33.60;99.90;;;;;;5036851;28;20207;-65
2022/08/15 06:46:44;;;;;;;14.13;11.73;;;31.90;99.90;;;;;;5037859;28;20236;-65
2022/08/15 06:49:13;;;;;;;15.40;12.93;;;33.30;99.90;;;;;;5038460;28;20198;-66
2022/08/15 06:51:41;;;;;;;14.07;12.45;;;33.80;99.90;;;;;;5037976;28;20204;-65
2022/08/15 06:54:11;;;;;;;13.73;11.55;;;35.20;99.90;;;;;;5037388;28;20207;-66
2022/08/15 06:56:49;;;;;;;12.18;10.98;;;35.60;99.90;;;;;;5038859;28;20306;-66
2022/08/15 06:59:27;;;;;;;14.43;11.70;;;37.20;99.90;;;;;;5035506;28;20259;-66
2022/08/15 07:02:11;;;;;;;12.73;11.55;;;35.90;99.90;;;;;;5042969;28;20214;-65
2022/08/15 07:04:40;;;;;;;17.50;12.02;;;36.00;99.90;;;;;;5041638;28;20258;-66
2022/08/15 07:07:18;;;;;;;15.98;12.73;;;35.20;99.90;;;;;;5044833;28;20195;-66
2022/08/15 07:09:52;;;;;;;13.20;11.27;;;34.90;99.90;;;;;;5042096;28;20343;-66
2022/08/15 07:12:45;;;;;;;13.45;11.82;;;35.10;99.90;;;;;;5041210;28;20684;-66
2022/08/15 07:15:24;;;;;;;14.73;13.02;;;34.50;99.90;;;;;;5041585;28;20207;-66
2022/08/15 07:17:53;;;;;;;12.75;11.48;;;34.70;99.90;;;;;;5038554;28;20653;-65
2022/08/15 07:20:19;;;;;;;12.82;11.50;;;34.80;99.90;;;;;;5043385;28;20212;-66
2022/08/15 07:22:44;;;;;;;12.68;10.68;;;34.50;99.90;;;;;;5041119;28;20220;-67
2022/08/15 07:25:18;;;;;;;11.55;10.38;;;34.00;99.90;;;;;;5045297;28;20227;-67
2022/08/15 07:27:58;;;;;;;11.05;10.05;;;34.40;99.90;;;;;;5041834;28;20207;-66
2022/08/15 07:30:56;;;;;;;9.75;8.93;;;34.40;99.90;;;;;;5038332;28;20204;-66
2022/08/15 07:33:31;;;;;;;10.10;9.13;;;34.70;99.90;;;;;;5038194;28;20230;-66
2022/08/15 07:36:06;;;;;;;10.40;9.50;;;34.80;99.90;;;;;;5043785;28;20209;-67
2022/08/15 07:38:32;;;;;;;10.27;9.30;;;35.40;99.90;;;;;;5039429;28;20209;-66
2022/08/15 07:41:17;;;;;;;10.27;9.38;;;34.70;99.90;;;;;;5041084;28;20569;-66
2022/08/15 07:43:44;;;;;;;9.60;8.70;;;35.20;99.90;;;;;;5041003;28;20168;-67
2022/08/15 07:46:13;;;;;;;9.75;8.88;;;35.40;99.90;;;;;;5041070;28;20194;-66
2022/08/15 07:48:41;;;;;;;9.60;8.63;;;34.70;99.90;;;;;;5040190;28;20219;-66
2022/08/15 07:51:28;;;;;;;9.50;8.45;;;34.90;99.90;;;;;;5044492;28;20199;-66
2022/08/15 07:53:59;;;;;;;9.80;8.80;;;36.30;99.90;;;;;;5042748;28;20195;-67
2022/08/15 07:56:28;;;;;;;11.73;9.25;;;36.60;99.90;;;;;;5020840;28;20647;-66
2022/08/15 07:59:21;;;;;;;10.40;9.48;;;35.80;99.90;;;;;;5063579;22;20652;-71
2022/08/15 08:01:47;;;;;;;10.70;9.60;;;35.20;99.90;;;;;;5032338;28;20567;-70
2022/08/15 08:04:20;;;;;;;13.25;8.75;;;35.10;99.90;;;;;;5037553;28;20191;-71
2022/08/15 08:07:17;;;;;;;12.52;9.60;;;35.70;99.90;;;;;;5038991;28;20239;-70
2022/08/15 08:09:47;;;;;;;9.88;8.88;;;34.80;99.90;;;;;;5024562;28;20207;-70
2022/08/15 08:12:53;;;;;;;9.18;8.27;;;35.10;99.90;;;;;;5006908;28;20200;-69
2022/08/15 08:15:22;;;;;;;9.40;8.52;;;35.60;99.90;;;;;;5016583;28;20211;-71
2022/08/15 08:17:57;;;;;;;8.55;7.75;;;35.20;99.90;;;;;;5014775;28;20204;-68
2022/08/15 08:20:29;;;;;;;9.35;8.43;;;35.00;99.90;;;;;;5007674;28;20216;-70
2022/08/15 08:23:19;;;;;;;9.43;8.50;;;34.80;99.90;;;;;;5013297;28;20227;-70
2022/08/15 08:25:56;;;;;;;9.93;8.85;;;35.20;99.90;;;;;;5018228;28;20234;-70
2022/08/15 08:28:52;;;;;;;9.32;8.52;;;35.20;99.90;;;;;;5012071;28;20921;-70
2022/08/15 08:31:36;;;;;;;10.73;9.63;;;35.50;99.90;;;;;;5005709;28;20272;-72
2022/08/15 08:34:22;;;;;;;11.23;9.55;;;35.20;99.90;;;;;;5015555;28;20671;-72
2022/08/15 08:37:10;;;;;;;10.63;9.52;;;35.10;99.90;;;;;;5005156;28;20200;-71
2022/08/15 08:41:24;;;;;;;11.50;10.18;;;34.30;99.90;;;;;;5007408;28;20301;-72
2022/08/15 08:42:53;;;;;;;11.05;9.95;;;34.30;99.90;;;;;;5017666;28;20199;-72
2022/08/15 08:45:31;;;;;;;10.50;9.35;;;35.40;99.90;;;;;;5011738;28;20216;-72
2022/08/15 08:48:15;;;;;;;12.98;11.73;;;34.70;99.90;;;;;;5004524;28;20224;-71
2022/08/15 08:50:44;;;;;;;11.35;10.25;;;34.10;99.90;;;;;;5019267;28;20208;-70
2022/08/15 08:53:44;;;;;;;11.00;10.00;;;33.10;99.90;;;;;;5011495;28;20645;-71
2022/08/15 08:56:35;;;;;;;10.73;9.73;;;34.00;99.90;;;;;;5006164;28;20309;-71
2022/08/15 08:59:16;;;;;;;14.52;9.30;;;34.50;99.90;;;;;;5005878;28;20267;-71
2022/08/15 09:01:43;;;;;;;10.75;9.75;;;34.40;99.90;;;;;;5013425;28;20169;-71
2022/08/15 09:04:15;;;;;;;10.45;9.45;;;34.30;99.90;;;;;;5005953;28;20171;-71
2022/08/15 09:06:42;;;;;;;11.55;10.35;;;34.00;99.90;;;;;;5012702;28;20216;-71
2022/08/15 09:09:34;;;;;;;11.55;10.45;;;33.60;99.90;;;;;;5013568;28;20354;-71
2022/08/15 09:14:59;;;;;;;10.95;9.88;;;34.70;99.90;;;;;;5009104;28;20311;-71
2022/08/15 09:17:28;;;;;;;10.35;9.45;;;33.60;99.90;;;;;;5015048;28;20232;-71
2022/08/15 09:20:06;;;;;;;10.60;9.63;;;34.20;99.90;;;;;;5006760;28;20729;-71
2022/08/15 09:22:32;;;;;;;10.65;9.57;;;34.00;99.90;;;;;;5006502;28;20178;-71
2022/08/15 09:24:59;;;;;;;11.88;10.77;;;32.70;99.90;;;;;;5019172;28;20179;-71
2022/08/15 09:27:43;;;;;;;10.95;9.70;;;32.50;99.90;;;;;;5016415;28;20256;-71
2022/08/15 09:30:11;;;;;;;9.48;8.48;;;32.20;99.90;;;;;;5006786;28;20208;-71
2022/08/15 09:33:08;;;;;;;12.18;10.90;;;32.00;99.90;;;;;;5011670;28;20232;-72
2022/08/15 09:36:22;;;;;;;10.32;9.30;;;32.10;99.90;;;;;;5013779;28;20625;-72
2022/08/15 09:39:17;;;;;;;11.25;10.05;;;31.60;99.90;;;;;;4968657;28;20617;-71
2022/08/15 09:42:22;;;;;;;11.30;9.45;;;31.20;99.90;;;;;;5019224;28;20251;-71
2022/08/15 09:45:17;;;;;;;11.13;9.50;;;31.00;99.90;;;;;;5004616;28;20204;-71
2022/08/15 09:48:03;;;;;;;10.88;9.73;;;32.00;99.90;;;;;;5006150;28;20767;-72
2022/08/15 09:50:59;;;;;;;11.05;9.82;;;32.10;99.90;;;;;;5015169;28;20435;-71
2022/08/15 09:53:47;;;;;;;12.43;10.43;;;31.90;99.90;;;;;;5009957;28;20202;-72
2022/08/15 09:56:18;;;;;;;13.73;12.18;;;31.80;99.90;;;;;;5004912;28;20217;-71
2022/08/15 09:58:57;;;;;;;12.15;10.75;;;31.90;99.90;;;;;;5018525;28;23361;-70
2022/08/15 10:01:31;;;;;;;11.80;10.30;;;31.80;99.90;;;;;;5010293;28;20187;-70
2022/08/15 10:03:59;;;;;;;12.80;11.23;;;31.30;99.90;;;;;;5006790;28;20208;-70
2022/08/15 10:06:27;;;;;;;12.95;10.05;;;31.20;99.90;;;;;;5008038;28;20291;-70
2022/08/15 10:08:52;;;;;;;10.02;9.02;;;32.10;99.90;;;;;;5015978;28;20763;-70
2022/08/15 10:11:38;;;;;;;12.75;9.88;;;32.40;99.90;;;;;;5007622;28;20207;-70
2022/08/15 10:14:06;;;;;;;11.50;10.25;;;31.70;99.90;;;;;;5002526;28;20562;-70
2022/08/15 10:16:40;;;;;;;9.73;8.73;;;32.10;99.90;;;;;;5017723;28;20182;-71
2022/08/15 10:19:33;;;;;;;10.65;9.60;;;32.40;99.90;;;;;;5008524;28;20324;-71
2022/08/15 10:22:21;;;;;;;10.68;9.68;;;31.30;99.90;;;;;;5004420;28;20205;-70
2022/08/15 10:25:22;;;;;;;10.35;9.35;;;31.20;99.90;;;;;;5011151;28;20214;-73
2022/08/15 10:27:54;;;;;;;11.43;10.32;;;31.20;99.90;;;;;;5007574;28;20254;-71
2022/08/15 10:30:24;;;;;;;12.23;9.95;;;31.20;99.90;;;;;;5002259;28;20209;-72
2022/08/15 10:32:52;;;;;;;11.27;9.95;;;31.40;99.90;;;;;;5012833;28;20200;-71
2022/08/15 10:35:36;;;;;;;10.95;9.30;;;32.00;99.90;;;;;;5017195;28;20239;-71
2022/08/15 10:38:07;;;;;;;12.45;10.40;;;31.80;99.90;;;;;;5012240;28;20258;-72
2022/08/15 10:40:49;;;;;;;12.20;9.32;;;31.80;99.90;;;;;;5016983;28;20189;-70
2022/08/15 10:43:27;;;;;;;11.75;9.57;;;31.10;99.90;;;;;;5017372;28;20520;-71
2022/08/15 10:46:19;;;;;;;11.90;9.90;;;30.50;99.90;;;;;;5017068;28;20244;-71
2022/08/15 10:49:01;;;;;;;13.93;9.82;;;30.50;99.90;;;;;;5012755;28;20231;-72
2022/08/15 10:52:01;;;;;;;13.95;9.98;;;31.10;99.90;;;;;;5019301;28;20287;-70
2022/08/15 10:54:45;;;;;;;14.32;10.80;;;30.80;99.90;;;;;;5020189;28;20199;-69
2022/08/15 10:57:16;;;;;;;10.75;9.65;;;31.20;99.90;;;;;;5016276;28;20283;-69
2022/08/15 10:59:45;;;;;;;11.23;9.43;;;31.30;99.90;;;;;;5021870;28;20224;-70
2022/08/15 11:02:32;;;;;;;10.50;9.35;;;31.70;99.90;;;;;;5014221;28;20200;-68
2022/08/15 11:05:03;;;;;;;11.43;9.50;;;31.90;99.90;;;;;;5010207;28;20701;-68
2022/08/15 11:07:28;;;;;;;11.35;9.98;;;32.70;99.90;;;;;;5020353;28;20181;-68
2022/08/15 11:09:56;;;;;;;11.65;8.98;;;32.60;99.90;;;;;;5021944;28;20573;-69
2022/08/15 11:12:26;;;;;;;11.90;8.70;;;32.50;99.90;;;;;;5010271;28;20213;-67
2022/08/15 11:14:55;;;;;;;10.85;9.00;;;32.10;99.90;;;;;;5013026;28;20217;-67
2022/08/15 11:17:23;;;;;;;12.32;9.57;;;31.60;99.90;;;;;;5019686;28;20201;-68
2022/08/15 11:19:51;;;;;;;12.48;10.05;;;31.20;99.90;;;;;;5013110;28;20587;-68
2022/08/15 11:22:58;;;;;;;12.13;9.45;;;31.20;99.90;;;;;;5014045;28;20228;-67
2022/08/15 11:25:37;;;;;;;10.02;9.02;;;31.60;99.90;;;;;;5009321;28;20204;-67
2022/08/15 11:28:10;;;;;;;9.98;8.98;;;31.60;99.90;;;;;;5017665;28;20187;-67
2022/08/15 11:30:38;;;;;;;10.50;9.50;;;31.40;99.90;;;;;;5009757;28;20209;-68
2022/08/15 11:33:22;;;;;;;11.02;9.93;;;31.40;99.90;;;;;;5018670;28;20701;-68
2022/08/15 11:35:50;;;;;;;10.85;9.52;;;31.00;99.90;;;;;;5014535;28;20204;-68
2022/08/15 11:38:16;;;;;;;10.18;9.18;;;30.90;99.90;;;;;;5014088;28;20224;-68
2022/08/15 11:40:48;;;;;;;11.60;10.38;;;30.90;99.90;;;;;;5018498;28;20184;-69
2022/08/15 11:43:16;;;;;;;13.18;10.73;;;31.10;99.90;;;;;;5016547;28;20172;-68
2022/08/15 11:45:48;;;;;;;11.70;9.30;;;30.80;99.90;;;;;;5016036;28;20372;-69
2022/08/15 11:48:23;;;;;;;12.07;10.35;;;31.00;99.90;;;;;;5003988;28;20256;-68
2022/08/15 11:51:21;;;;;;;10.68;9.02;;;30.90;99.90;;;;;;5013399;28;20687;-68
2022/08/15 11:54:25;;;;;;;10.82;9.65;;;31.00;99.90;;;;;;5009605;28;20677;-68
2022/08/15 11:57:03;;;;;;;10.88;9.80;;;31.20;99.90;;;;;;4930714;29;20282;-68
2022/08/15 11:59:35;;;;;;;12.57;9.65;;;31.50;99.90;;;;;;4956784;28;20791;-68
2022/08/15 12:02:10;;;;;;;10.77;9.70;;;31.20;99.90;;;;;;4990369;28;20212;-69
2022/08/15 12:04:43;;;;;;;10.82;9.73;;;31.20;99.90;;;;;;5002775;28;20173;-69
2022/08/15 12:07:29;;;;;;;10.05;9.05;;;31.30;99.90;;;;;;5007631;28;20201;-69
2022/08/15 12:10:06;;;;;;;10.50;9.43;;;31.20;99.90;;;;;;5015455;28;20205;-69
2022/08/15 12:12:37;;;;;;;9.85;8.75;;;31.30;99.90;;;;;;5009569;28;20256;-70
2022/08/15 12:15:32;;;;;;;10.35;9.32;;;31.00;99.90;;;;;;5009491;28;20939;-69
2022/08/15 12:18:20;;;;;;;11.43;9.30;;;31.30;99.90;;;;;;5014501;28;20278;-68
2022/08/15 12:20:55;;;;;;;10.32;8.95;;;31.60;99.90;;;;;;5003868;28;20290;-68
2022/08/15 12:23:36;;;;;;;10.93;9.00;;;31.90;99.90;;;;;;5008620;28;20208;-68
2022/08/15 12:26:08;;;;;;;11.40;8.98;;;31.70;99.90;;;;;;5017418;28;20260;-67
2022/08/15 12:28:35;;;;;;;9.93;8.93;;;31.80;99.90;;;;;;5009148;28;20181;-68
2022/08/15 12:31:20;;;;;;;10.63;8.82;;;31.80;99.90;;;;;;5010948;28;20188;-67
2022/08/15 12:33:47;;;;;;;10.18;8.85;;;32.00;99.90;;;;;;5019613;28;20200;-68
2022/08/15 12:36:12;;;;;;;10.85;9.75;;;32.10;99.90;;;;;;5011325;28;20201;-69
2022/08/15 12:38:39;;;;;;;16.13;9.48;;;32.20;99.90;;;;;;5004039;28;20227;-69
2022/08/15 12:41:06;;;;;;;10.55;9.20;;;32.00;99.90;;;;;;5008771;28;20246;-67
2022/08/15 12:43:33;;;;;;;9.90;8.88;;;31.70;99.90;;;;;;5016057;28;20325;-69
2022/08/15 12:45:59;;;;;;;10.05;8.93;;;31.70;99.90;;;;;;5012272;28;20193;-68
2022/08/15 12:48:27;;;;;;;11.52;9.30;;;31.70;99.90;;;;;;5002296;28;20205;-69
2022/08/15 12:50:54;;;;;;;10.98;9.80;;;31.40;99.90;;;;;;5010897;28;20384;-69
2022/08/15 12:53:19;;;;;;;10.43;9.38;;;31.20;99.90;;;;;;5012040;28;20228;-68
2022/08/15 12:55:47;;;;;;;11.07;9.73;;;31.20;99.90;;;;;;5007360;28;20204;-69
2022/08/15 12:58:18;;;;;;;12.30;9.52;;;31.20;99.90;;;;;;5010890;28;20173;-69
2022/08/15 13:00:47;;;;;;;12.48;8.93;;;31.20;99.90;;;;;;5015832;28;20583;-68
2022/08/15 13:03:15;;;;;;;9.73;8.82;;;31.30;99.90;;;;;;5007602;28;20204;-68
2022/08/15 13:05:42;;;;;;;10.25;9.15;;;31.20;99.90;;;;;;5007627;28;20752;-68
2022/08/15 13:08:08;;;;;;;11.00;8.90;;;31.30;99.90;;;;;;5016297;28;20209;-69
2022/08/15 13:10:34;;;;;;;10.73;9.63;;;31.20;99.90;;;;;;5011507;28;20209;-67